sensor_id;sensor_type;location;lat;lon;timestamp;temperature;humidity
67279;DHT22;54193;53.746;10.058;2023-03-14T00:00:27;9.86;84.10
67279;DHT22;54193;53.746;10.058;2023-03-14T00:03:12;9.86;83.99
67279;DHT22;54193;53.746;10.058;2023-03-14T00:06:02;9.89;83.99
67279;DHT22;54193;53.746;10.058;2023-03-14T00:08:48;9.86;84.08
67279;DHT22;54193;53.746;10.058;2023-03-14T00:11:34;9.93;83.67
67279;DHT22;54193;53.746;10.058;2023-03-14T00:14:19;9.85;84.04
67279;DHT22;54193;53.746;10.058;2023-03-14T00:17:05;9.75;84.36
67279;DHT22;54193;53.746;10.058;2023-03-14T00:19:51;9.77;84.63
67279;DHT22;54193;53.746;10.058;2023-03-14T00:22:41;9.79;84.57
67279;DHT22;54193;53.746;10.058;2023-03-14T00:25:26;9.61;85.06
67279;DHT22;54193;53.746;10.058;2023-03-14T00:28:12;9.77;85.10
67279;DHT22;54193;53.746;10.058;2023-03-14T00:30:58;9.90;84.93
67279;DHT22;54193;53.746;10.058;2023-03-14T00:33:44;9.96;84.95
67279;DHT22;54193;53.746;10.058;2023-03-14T00:36:30;9.99;85.13
67279;DHT22;54193;53.746;10.058;2023-03-14T00:39:16;10.18;84.64
67279;DHT22;54193;53.746;10.058;2023-03-14T00:42:01;10.23;84.59
67279;DHT22;54193;53.746;10.058;2023-03-14T00:44:47;10.16;84.67
67279;DHT22;54193;53.746;10.058;2023-03-14T00:47:33;10.23;84.31
67279;DHT22;54193;53.746;10.058;2023-03-14T00:50:18;10.18;84.63
67279;DHT22;54193;53.746;10.058;2023-03-14T00:53:04;10.24;84.58
67279;DHT22;54193;53.746;10.058;2023-03-14T00:55:50;10.16;84.45
67279;DHT22;54193;53.746;10.058;2023-03-14T00:58:36;10.18;84.06
67279;DHT22;54193;53.746;10.058;2023-03-14T01:01:22;10.03;84.48
67279;DHT22;54193;53.746;10.058;2023-03-14T01:04:07;10.03;84.47
67279;DHT22;54193;53.746;10.058;2023-03-14T01:06:53;10.07;83.99
67279;DHT22;54193;53.746;10.058;2023-03-14T01:09:39;10.09;84.03
67279;DHT22;54193;53.746;10.058;2023-03-14T01:12:24;10.16;83.79
67279;DHT22;54193;53.746;10.058;2023-03-14T01:15:10;10.13;83.79
67279;DHT22;54193;53.746;10.058;2023-03-14T01:17:56;10.30;83.30
67279;DHT22;54193;53.746;10.058;2023-03-14T01:20:41;10.32;83.19
67279;DHT22;54193;53.746;10.058;2023-03-14T01:23:27;10.44;82.81
67279;DHT22;54193;53.746;10.058;2023-03-14T01:26:15;10.44;82.80
67279;DHT22;54193;53.746;10.058;2023-03-14T01:29:01;10.48;82.55
67279;DHT22;54193;53.746;10.058;2023-03-14T01:31:47;10.55;82.61
67279;DHT22;54193;53.746;10.058;2023-03-14T01:34:33;10.54;82.69
67279;DHT22;54193;53.746;10.058;2023-03-14T01:37:18;10.64;82.21
67279;DHT22;54193;53.746;10.058;2023-03-14T01:40:04;10.54;82.72
67279;DHT22;54193;53.746;10.058;2023-03-14T01:42:58;10.62;82.60
67279;DHT22;54193;53.746;10.058;2023-03-14T01:49:03;10.45;84.49
67279;DHT22;54193;53.746;10.058;2023-03-14T01:52:19;10.38;84.67
67279;DHT22;54193;53.746;10.058;2023-03-14T01:55:12;10.26;84.78
67279;DHT22;54193;53.746;10.058;2023-03-14T01:58:03;10.14;85.11
67279;DHT22;54193;53.746;10.058;2023-03-14T02:00:49;10.16;84.74
67279;DHT22;54193;53.746;10.058;2023-03-14T02:03:40;10.12;84.62
67279;DHT22;54193;53.746;10.058;2023-03-14T02:06:35;10.07;84.37
67279;DHT22;54193;53.746;10.058;2023-03-14T02:09:22;10.23;84.10
67279;DHT22;54193;53.746;10.058;2023-03-14T02:12:09;10.32;84.08
67279;DHT22;54193;53.746;10.058;2023-03-14T02:14:56;10.37;83.96
67279;DHT22;54193;53.746;10.058;2023-03-14T02:17:43;10.41;83.99
67279;DHT22;54193;53.746;10.058;2023-03-14T02:20:35;10.34;84.42
67279;DHT22;54193;53.746;10.058;2023-03-14T02:26:38;10.32;84.62
67279;DHT22;54193;53.746;10.058;2023-03-14T02:29:25;10.21;84.85
67279;DHT22;54193;53.746;10.058;2023-03-14T02:32:12;10.18;85.09
67279;DHT22;54193;53.746;10.058;2023-03-14T02:35:00;10.16;85.28
67279;DHT22;54193;53.746;10.058;2023-03-14T02:40:36;10.17;85.59
67279;DHT22;54193;53.746;10.058;2023-03-14T02:43:21;10.26;85.53
67279;DHT22;54193;53.746;10.058;2023-03-14T02:46:10;10.33;85.13
67279;DHT22;54193;53.746;10.058;2023-03-14T02:49:08;10.38;85.20
67279;DHT22;54193;53.746;10.058;2023-03-14T02:51:55;10.44;84.93
67279;DHT22;54193;53.746;10.058;2023-03-14T02:54:41;10.47;84.84
67279;DHT22;54193;53.746;10.058;2023-03-14T02:57:27;10.47;84.95
67279;DHT22;54193;53.746;10.058;2023-03-14T03:00:12;10.47;84.79
67279;DHT22;54193;53.746;10.058;2023-03-14T03:02:58;10.57;84.48
67279;DHT22;54193;53.746;10.058;2023-03-14T03:05:50;10.57;84.39
67279;DHT22;54193;53.746;10.058;2023-03-14T03:08:36;10.60;84.41
67279;DHT22;54193;53.746;10.058;2023-03-14T03:11:21;10.53;84.44
67279;DHT22;54193;53.746;10.058;2023-03-14T03:14:07;10.48;84.73
67279;DHT22;54193;53.746;10.058;2023-03-14T03:16:53;10.50;84.82
67279;DHT22;54193;53.746;10.058;2023-03-14T03:19:38;10.61;84.43
67279;DHT22;54193;53.746;10.058;2023-03-14T03:22:24;10.55;84.73
67279;DHT22;54193;53.746;10.058;2023-03-14T03:25:10;10.64;84.46
67279;DHT22;54193;53.746;10.058;2023-03-14T03:27:56;10.60;84.70
67279;DHT22;54193;53.746;10.058;2023-03-14T03:30:42;10.62;84.57
67279;DHT22;54193;53.746;10.058;2023-03-14T03:33:28;10.69;84.35
67279;DHT22;54193;53.746;10.058;2023-03-14T03:36:14;10.75;84.14
67279;DHT22;54193;53.746;10.058;2023-03-14T03:38:59;10.78;84.24
67279;DHT22;54193;53.746;10.058;2023-03-14T03:41:45;10.83;84.07
67279;DHT22;54193;53.746;10.058;2023-03-14T03:44:31;10.91;83.88
67279;DHT22;54193;53.746;10.058;2023-03-14T03:47:16;10.85;83.89
67279;DHT22;54193;53.746;10.058;2023-03-14T03:50:02;10.81;84.00
67279;DHT22;54193;53.746;10.058;2023-03-14T03:52:48;10.76;84.16
67279;DHT22;54193;53.746;10.058;2023-03-14T03:55:33;10.71;84.27
67279;DHT22;54193;53.746;10.058;2023-03-14T03:58:19;10.67;84.40
67279;DHT22;54193;53.746;10.058;2023-03-14T04:01:05;10.57;84.48
67279;DHT22;54193;53.746;10.058;2023-03-14T04:03:52;10.55;84.71
67279;DHT22;54193;53.746;10.058;2023-03-14T04:06:37;10.57;84.63
67279;DHT22;54193;53.746;10.058;2023-03-14T04:09:23;10.60;84.54
67279;DHT22;54193;53.746;10.058;2023-03-14T04:12:09;10.57;84.52
67279;DHT22;54193;53.746;10.058;2023-03-14T04:14:56;10.50;84.68
67279;DHT22;54193;53.746;10.058;2023-03-14T04:17:42;10.53;84.63
67279;DHT22;54193;53.746;10.058;2023-03-14T04:20:27;10.44;85.58
67279;DHT22;54193;53.746;10.058;2023-03-14T04:23:13;10.23;86.36
67279;DHT22;54193;53.746;10.058;2023-03-14T04:25:59;10.14;86.57
67279;DHT22;54193;53.746;10.058;2023-03-14T04:28:44;10.18;86.52
67279;DHT22;54193;53.746;10.058;2023-03-14T04:31:30;10.29;85.94
67279;DHT22;54193;53.746;10.058;2023-03-14T04:34:17;10.37;85.60
67279;DHT22;54193;53.746;10.058;2023-03-14T04:37:03;10.36;85.46
67279;DHT22;54193;53.746;10.058;2023-03-14T04:39:48;10.36;85.43
67279;DHT22;54193;53.746;10.058;2023-03-14T04:42:34;10.44;85.32
67279;DHT22;54193;53.746;10.058;2023-03-14T04:45:20;10.47;85.18
67279;DHT22;54193;53.746;10.058;2023-03-14T04:48:05;10.64;83.27
67279;DHT22;54193;53.746;10.058;2023-03-14T04:50:51;10.47;82.29
67279;DHT22;54193;53.746;10.058;2023-03-14T04:53:37;10.26;83.05
67279;DHT22;54193;53.746;10.058;2023-03-14T04:56:23;9.98;84.46
67279;DHT22;54193;53.746;10.058;2023-03-14T04:59:08;9.78;84.78
67279;DHT22;54193;53.746;10.058;2023-03-14T05:01:54;9.54;86.06
67279;DHT22;54193;53.746;10.058;2023-03-14T05:04:40;9.30;86.46
67279;DHT22;54193;53.746;10.058;2023-03-14T05:07:25;9.17;87.33
67279;DHT22;54193;53.746;10.058;2023-03-14T05:10:11;9.12;87.77
67279;DHT22;54193;53.746;10.058;2023-03-14T05:12:56;8.93;88.07
67279;DHT22;54193;53.746;10.058;2023-03-14T05:15:42;8.78;88.68
67279;DHT22;54193;53.746;10.058;2023-03-14T05:18:28;8.69;89.18
67279;DHT22;54193;53.746;10.058;2023-03-14T05:21:13;8.68;89.39
67279;DHT22;54193;53.746;10.058;2023-03-14T05:23:59;8.65;89.39
67279;DHT22;54193;53.746;10.058;2023-03-14T05:26:45;8.62;89.66
67279;DHT22;54193;53.746;10.058;2023-03-14T05:29:30;8.58;90.00
67279;DHT22;54193;53.746;10.058;2023-03-14T05:32:16;8.51;90.42
67279;DHT22;54193;53.746;10.058;2023-03-14T05:35:02;8.41;90.88
67279;DHT22;54193;53.746;10.058;2023-03-14T05:37:48;8.45;91.15
67279;DHT22;54193;53.746;10.058;2023-03-14T05:40:34;8.41;91.17
67279;DHT22;54193;53.746;10.058;2023-03-14T05:43:20;8.37;91.21
67279;DHT22;54193;53.746;10.058;2023-03-14T05:46:05;8.34;91.27
67279;DHT22;54193;53.746;10.058;2023-03-14T05:48:51;8.34;91.48
67279;DHT22;54193;53.746;10.058;2023-03-14T05:51:37;8.24;91.58
67279;DHT22;54193;53.746;10.058;2023-03-14T05:54:22;8.27;91.87
67279;DHT22;54193;53.746;10.058;2023-03-14T05:57:08;8.31;91.88
67279;DHT22;54193;53.746;10.058;2023-03-14T05:59:54;8.40;91.41
67279;DHT22;54193;53.746;10.058;2023-03-14T06:02:39;8.47;91.49
67279;DHT22;54193;53.746;10.058;2023-03-14T06:05:25;8.42;91.71
67279;DHT22;54193;53.746;10.058;2023-03-14T06:08:11;8.40;91.89
67279;DHT22;54193;53.746;10.058;2023-03-14T06:10:57;8.48;92.08
67279;DHT22;54193;53.746;10.058;2023-03-14T06:13:43;8.45;92.12
67279;DHT22;54193;53.746;10.058;2023-03-14T06:16:28;8.45;92.10
67279;DHT22;54193;53.746;10.058;2023-03-14T06:19:14;8.37;92.30
67279;DHT22;54193;53.746;10.058;2023-03-14T06:22:00;8.40;92.44
67279;DHT22;54193;53.746;10.058;2023-03-14T06:24:45;8.52;92.54
67279;DHT22;54193;53.746;10.058;2023-03-14T06:27:32;8.61;92.46
67279;DHT22;54193;53.746;10.058;2023-03-14T06:30:18;8.58;92.20
67279;DHT22;54193;53.746;10.058;2023-03-14T06:33:04;8.65;92.32
67279;DHT22;54193;53.746;10.058;2023-03-14T06:35:51;8.59;92.24
67279;DHT22;54193;53.746;10.058;2023-03-14T06:38:36;8.68;92.16
67279;DHT22;54193;53.746;10.058;2023-03-14T06:41:22;8.76;92.15
67279;DHT22;54193;53.746;10.058;2023-03-14T06:44:09;8.85;91.79
67279;DHT22;54193;53.746;10.058;2023-03-14T06:46:54;8.89;91.73
67279;DHT22;54193;53.746;10.058;2023-03-14T06:49:40;8.86;91.53
67279;DHT22;54193;53.746;10.058;2023-03-14T06:52:26;8.80;91.59
67279;DHT22;54193;53.746;10.058;2023-03-14T06:55:14;8.92;91.58
67279;DHT22;54193;53.746;10.058;2023-03-14T06:58:01;9.23;90.97
67279;DHT22;54193;53.746;10.058;2023-03-14T07:00:47;9.28;91.01
67279;DHT22;54193;53.746;10.058;2023-03-14T07:03:33;9.31;90.71
67279;DHT22;54193;53.746;10.058;2023-03-14T07:06:20;9.30;90.48
67279;DHT22;54193;53.746;10.058;2023-03-14T07:09:05;9.30;90.44
67279;DHT22;54193;53.746;10.058;2023-03-14T07:11:51;9.30;90.22
67279;DHT22;54193;53.746;10.058;2023-03-14T07:14:37;9.27;90.21
67279;DHT22;54193;53.746;10.058;2023-03-14T07:17:22;9.30;90.21
67279;DHT22;54193;53.746;10.058;2023-03-14T07:20:09;9.28;90.05
67279;DHT22;54193;53.746;10.058;2023-03-14T07:22:54;9.31;90.18
67279;DHT22;54193;53.746;10.058;2023-03-14T07:25:40;9.34;90.43
67279;DHT22;54193;53.746;10.058;2023-03-14T07:28:26;9.34;90.09
67279;DHT22;54193;53.746;10.058;2023-03-14T07:31:12;9.34;89.96
67279;DHT22;54193;53.746;10.058;2023-03-14T07:33:58;9.31;89.66
67279;DHT22;54193;53.746;10.058;2023-03-14T07:36:44;9.30;89.43
67279;DHT22;54193;53.746;10.058;2023-03-14T07:39:31;9.33;89.05
67279;DHT22;54193;53.746;10.058;2023-03-14T07:42:16;9.50;88.00
67279;DHT22;54193;53.746;10.058;2023-03-14T07:45:02;9.61;87.66
67279;DHT22;54193;53.746;10.058;2023-03-14T07:47:48;9.68;87.45
67279;DHT22;54193;53.746;10.058;2023-03-14T07:50:34;9.71;87.33
67279;DHT22;54193;53.746;10.058;2023-03-14T07:53:20;9.61;87.09
67279;DHT22;54193;53.746;10.058;2023-03-14T07:56:07;9.61;87.32
67279;DHT22;54193;53.746;10.058;2023-03-14T07:58:53;9.62;87.28
67279;DHT22;54193;53.746;10.058;2023-03-14T08:01:39;9.62;87.05
67279;DHT22;54193;53.746;10.058;2023-03-14T08:04:24;9.65;87.22
67279;DHT22;54193;53.746;10.058;2023-03-14T08:07:10;9.74;86.93
67279;DHT22;54193;53.746;10.058;2023-03-14T08:09:55;9.82;86.52
67279;DHT22;54193;53.746;10.058;2023-03-14T08:12:41;9.96;86.47
67279;DHT22;54193;53.746;10.058;2023-03-14T08:15:29;10.09;86.35
67279;DHT22;54193;53.746;10.058;2023-03-14T08:18:15;10.05;86.39
67279;DHT22;54193;53.746;10.058;2023-03-14T08:21:01;10.02;86.25
67279;DHT22;54193;53.746;10.058;2023-03-14T08:23:47;9.98;86.47
67279;DHT22;54193;53.746;10.058;2023-03-14T08:26:32;9.96;86.83
67279;DHT22;54193;53.746;10.058;2023-03-14T08:29:18;9.99;86.63
67279;DHT22;54193;53.746;10.058;2023-03-14T08:32:04;10.07;86.35
67279;DHT22;54193;53.746;10.058;2023-03-14T08:34:50;10.10;86.52
67279;DHT22;54193;53.746;10.058;2023-03-14T08:37:35;10.02;87.12
67279;DHT22;54193;53.746;10.058;2023-03-14T08:40:21;9.95;87.58
67279;DHT22;54193;53.746;10.058;2023-03-14T08:43:07;9.96;87.62
67279;DHT22;54193;53.746;10.058;2023-03-14T08:45:53;10.06;87.27
67279;DHT22;54193;53.746;10.058;2023-03-14T08:48:39;9.93;87.62
67279;DHT22;54193;53.746;10.058;2023-03-14T08:51:24;9.86;88.14
67279;DHT22;54193;53.746;10.058;2023-03-14T08:54:10;9.81;88.43
67279;DHT22;54193;53.746;10.058;2023-03-14T08:56:57;9.78;89.19
67279;DHT22;54193;53.746;10.058;2023-03-14T08:59:42;9.63;89.30
67279;DHT22;54193;53.746;10.058;2023-03-14T09:02:28;9.57;89.49
67279;DHT22;54193;53.746;10.058;2023-03-14T09:05:14;9.55;89.86
67279;DHT22;54193;53.746;10.058;2023-03-14T09:08:00;9.50;89.74
67279;DHT22;54193;53.746;10.058;2023-03-14T09:10:46;9.61;90.40
67279;DHT22;54193;53.746;10.058;2023-03-14T09:13:32;9.67;90.47
67279;DHT22;54193;53.746;10.058;2023-03-14T09:16:17;9.67;90.49
67279;DHT22;54193;53.746;10.058;2023-03-14T09:19:03;9.68;90.63
67279;DHT22;54193;53.746;10.058;2023-03-14T09:21:49;9.74;90.59
67279;DHT22;54193;53.746;10.058;2023-03-14T09:24:35;9.65;90.67
67279;DHT22;54193;53.746;10.058;2023-03-14T09:27:20;9.63;90.58
67279;DHT22;54193;53.746;10.058;2023-03-14T09:30:07;9.61;91.06
67279;DHT22;54193;53.746;10.058;2023-03-14T09:32:52;9.69;91.14
67279;DHT22;54193;53.746;10.058;2023-03-14T09:35:38;9.55;91.37
67279;DHT22;54193;53.746;10.058;2023-03-14T09:38:24;9.55;91.67
67279;DHT22;54193;53.746;10.058;2023-03-14T09:41:16;9.41;91.68
67279;DHT22;54193;53.746;10.058;2023-03-14T09:44:06;9.35;91.41
67279;DHT22;54193;53.746;10.058;2023-03-14T09:46:57;9.17;91.28
67279;DHT22;54193;53.746;10.058;2023-03-14T09:49:44;8.51;89.29
67279;DHT22;54193;53.746;10.058;2023-03-14T09:52:35;8.26;90.44
67279;DHT22;54193;53.746;10.058;2023-03-14T09:55:22;8.14;90.97
67279;DHT22;54193;53.746;10.058;2023-03-14T09:58:14;8.00;91.37
67279;DHT22;54193;53.746;10.058;2023-03-14T10:01:01;7.97;91.74
67279;DHT22;54193;53.746;10.058;2023-03-14T10:03:47;7.55;91.35
67279;DHT22;54193;53.746;10.058;2023-03-14T10:06:33;6.83;90.75
67279;DHT22;54193;53.746;10.058;2023-03-14T10:09:22;6.31;91.07
67279;DHT22;54193;53.746;10.058;2023-03-14T10:12:11;6.17;91.44
67279;DHT22;54193;53.746;10.058;2023-03-14T10:15:06;6.02;91.35
67279;DHT22;54193;53.746;10.058;2023-03-14T10:17:52;5.69;90.82
67279;DHT22;54193;53.746;10.058;2023-03-14T10:20:40;5.54;91.38
67279;DHT22;54193;53.746;10.058;2023-03-14T10:23:28;5.14;90.93
67279;DHT22;54193;53.746;10.058;2023-03-14T10:26:18;4.94;90.69
67279;DHT22;54193;53.746;10.058;2023-03-14T10:29:12;5.20;91.54
67279;DHT22;54193;53.746;10.058;2023-03-14T10:32:06;4.69;90.88
67279;DHT22;54193;53.746;10.058;2023-03-14T10:38:02;4.15;90.25
67279;DHT22;54193;53.746;10.058;2023-03-14T10:40:50;4.15;90.74
67279;DHT22;54193;53.746;10.058;2023-03-14T10:43:38;4.30;91.31
67279;DHT22;54193;53.746;10.058;2023-03-14T10:46:26;4.37;91.13
67279;DHT22;54193;53.746;10.058;2023-03-14T10:49:26;4.10;90.67
67279;DHT22;54193;53.746;10.058;2023-03-14T10:52:25;4.07;90.44
67279;DHT22;54193;53.746;10.058;2023-03-14T10:55:12;4.13;89.90
67279;DHT22;54193;53.746;10.058;2023-03-14T10:58:00;4.14;89.18
67279;DHT22;54193;53.746;10.058;2023-03-14T11:07:28;3.80;88.88
67279;DHT22;54193;53.746;10.058;2023-03-14T11:10:28;3.83;89.09
67279;DHT22;54193;53.746;10.058;2023-03-14T11:13:48;4.08;90.15
67279;DHT22;54193;53.746;10.058;2023-03-14T11:20:22;4.25;88.81
67279;DHT22;54193;53.746;10.058;2023-03-14T11:23:24;4.28;89.57
67279;DHT22;54193;53.746;10.058;2023-03-14T11:29:22;4.34;88.05
67279;DHT22;54193;53.746;10.058;2023-03-14T11:32:14;4.37;87.68
67279;DHT22;54193;53.746;10.058;2023-03-14T11:35:08;4.49;87.59
67279;DHT22;54193;53.746;10.058;2023-03-14T11:41:17;4.65;85.74
67279;DHT22;54193;53.746;10.058;2023-03-14T11:44:19;4.65;84.46
67279;DHT22;54193;53.746;10.058;2023-03-14T11:47:10;4.87;81.22
67279;DHT22;54193;53.746;10.058;2023-03-14T11:50:16;4.61;80.49
67279;DHT22;54193;53.746;10.058;2023-03-14T11:55:57;4.66;82.12
67279;DHT22;54193;53.746;10.058;2023-03-14T11:58:54;4.76;81.76
67279;DHT22;54193;53.746;10.058;2023-03-14T12:02:00;4.61;81.16
67279;DHT22;54193;53.746;10.058;2023-03-14T12:10:59;5.13;80.53
67279;DHT22;54193;53.746;10.058;2023-03-14T12:13:51;5.20;81.16
67279;DHT22;54193;53.746;10.058;2023-03-14T12:16:38;5.37;81.20
67279;DHT22;54193;53.746;10.058;2023-03-14T12:19:27;5.38;81.18
67279;DHT22;54193;53.746;10.058;2023-03-14T12:25:14;5.14;79.17
67279;DHT22;54193;53.746;10.058;2023-03-14T12:28:30;5.00;78.34
67279;DHT22;54193;53.746;10.058;2023-03-14T12:43:10;5.47;80.38
67279;DHT22;54193;53.746;10.058;2023-03-14T12:51:47;5.54;81.17
67279;DHT22;54193;53.746;10.058;2023-03-14T12:54:45;5.66;80.88
67279;DHT22;54193;53.746;10.058;2023-03-14T12:57:45;5.54;81.65
67279;DHT22;54193;53.746;10.058;2023-03-14T13:00:37;5.49;81.78
67279;DHT22;54193;53.746;10.058;2023-03-14T13:03:39;5.32;82.46
67279;DHT22;54193;53.746;10.058;2023-03-14T13:06:54;5.35;82.60
67279;DHT22;54193;53.746;10.058;2023-03-14T13:09:52;5.47;83.31
67279;DHT22;54193;53.746;10.058;2023-03-14T13:12:49;5.70;82.33
67279;DHT22;54193;53.746;10.058;2023-03-14T13:15:42;5.87;81.96
67279;DHT22;54193;53.746;10.058;2023-03-14T13:18:41;6.09;81.74
67279;DHT22;54193;53.746;10.058;2023-03-14T13:21:34;6.07;78.81
67279;DHT22;54193;53.746;10.058;2023-03-14T13:24:23;6.14;74.33
67279;DHT22;54193;53.746;10.058;2023-03-14T13:27:17;6.20;72.14
67279;DHT22;54193;53.746;10.058;2023-03-14T13:33:15;6.21;70.03
67279;DHT22;54193;53.746;10.058;2023-03-14T13:36:04;6.14;68.11
67279;DHT22;54193;53.746;10.058;2023-03-14T13:38:59;6.17;68.13
67279;DHT22;54193;53.746;10.058;2023-03-14T13:41:46;6.18;65.07
67279;DHT22;54193;53.746;10.058;2023-03-14T13:44:39;6.18;62.47
67279;DHT22;54193;53.746;10.058;2023-03-14T13:47:25;6.02;58.24
67279;DHT22;54193;53.746;10.058;2023-03-14T13:50:16;5.92;59.41
67279;DHT22;54193;53.746;10.058;2023-03-14T13:53:03;6.14;62.46
67279;DHT22;54193;53.746;10.058;2023-03-14T13:55:49;6.16;60.15
67279;DHT22;54193;53.746;10.058;2023-03-14T13:58:38;6.20;62.94
67279;DHT22;54193;53.746;10.058;2023-03-14T14:01:27;6.17;63.86
67279;DHT22;54193;53.746;10.058;2023-03-14T14:04:18;5.99;62.61
67279;DHT22;54193;53.746;10.058;2023-03-14T14:07:10;5.99;59.05
67279;DHT22;54193;53.746;10.058;2023-03-14T14:09:58;6.00;60.23
67279;DHT22;54193;53.746;10.058;2023-03-14T14:12:50;5.99;59.70
67279;DHT22;54193;53.746;10.058;2023-03-14T14:15:41;5.96;60.12
67279;DHT22;54193;53.746;10.058;2023-03-14T14:18:30;5.93;60.94
67279;DHT22;54193;53.746;10.058;2023-03-14T14:21:16;5.97;62.31
67279;DHT22;54193;53.746;10.058;2023-03-14T14:24:03;5.99;62.47
67279;DHT22;54193;53.746;10.058;2023-03-14T14:26:59;5.65;61.52
67279;DHT22;54193;53.746;10.058;2023-03-14T14:30:04;5.56;64.33
67279;DHT22;54193;53.746;10.058;2023-03-14T14:32:51;5.60;65.05
67279;DHT22;54193;53.746;10.058;2023-03-14T14:35:36;5.44;62.26
67279;DHT22;54193;53.746;10.058;2023-03-14T14:38:22;5.39;63.71
67279;DHT22;54193;53.746;10.058;2023-03-14T14:41:10;5.41;61.93
67279;DHT22;54193;53.746;10.058;2023-03-14T14:43:57;5.51;60.38
67279;DHT22;54193;53.746;10.058;2023-03-14T14:46:43;5.42;59.55
67279;DHT22;54193;53.746;10.058;2023-03-14T14:49:31;5.45;60.73
67279;DHT22;54193;53.746;10.058;2023-03-14T14:52:31;5.44;57.57
67279;DHT22;54193;53.746;10.058;2023-03-14T14:55:19;5.44;57.76
67279;DHT22;54193;53.746;10.058;2023-03-14T14:58:18;5.44;56.64
67279;DHT22;54193;53.746;10.058;2023-03-14T15:01:07;5.47;57.36
67279;DHT22;54193;53.746;10.058;2023-03-14T15:03:53;5.48;57.34
67279;DHT22;54193;53.746;10.058;2023-03-14T15:06:42;5.42;57.07
67279;DHT22;54193;53.746;10.058;2023-03-14T15:09:28;5.27;58.37
67279;DHT22;54193;53.746;10.058;2023-03-14T15:12:14;5.42;59.40
67279;DHT22;54193;53.746;10.058;2023-03-14T15:15:00;5.52;60.15
67279;DHT22;54193;53.746;10.058;2023-03-14T15:17:45;5.52;61.35
67279;DHT22;54193;53.746;10.058;2023-03-14T15:20:31;5.41;60.75
67279;DHT22;54193;53.746;10.058;2023-03-14T15:23:19;5.37;61.62
67279;DHT22;54193;53.746;10.058;2023-03-14T15:26:13;5.45;62.71
67279;DHT22;54193;53.746;10.058;2023-03-14T15:29:00;5.56;63.99
67279;DHT22;54193;53.746;10.058;2023-03-14T15:31:46;5.49;63.14
67279;DHT22;54193;53.746;10.058;2023-03-14T15:34:31;5.56;64.02
67279;DHT22;54193;53.746;10.058;2023-03-14T15:37:17;5.63;64.06
67279;DHT22;54193;53.746;10.058;2023-03-14T15:40:05;5.69;64.09
67279;DHT22;54193;53.746;10.058;2023-03-14T15:42:57;5.62;63.32
67279;DHT22;54193;53.746;10.058;2023-03-14T15:45:42;5.60;62.60
67279;DHT22;54193;53.746;10.058;2023-03-14T15:48:28;5.54;62.19
67279;DHT22;54193;53.746;10.058;2023-03-14T15:51:15;5.48;59.82
67279;DHT22;54193;53.746;10.058;2023-03-14T15:54:01;5.51;59.58
67279;DHT22;54193;53.746;10.058;2023-03-14T15:56:47;5.54;60.08
67279;DHT22;54193;53.746;10.058;2023-03-14T15:59:32;5.56;61.84
67279;DHT22;54193;53.746;10.058;2023-03-14T16:02:18;5.35;60.50
67279;DHT22;54193;53.746;10.058;2023-03-14T16:05:04;5.35;60.65
67279;DHT22;54193;53.746;10.058;2023-03-14T16:07:49;5.34;60.69
67279;DHT22;54193;53.746;10.058;2023-03-14T16:10:35;5.32;61.77
67279;DHT22;54193;53.746;10.058;2023-03-14T16:13:21;5.26;62.79
67279;DHT22;54193;53.746;10.058;2023-03-14T16:16:08;5.11;63.96
67279;DHT22;54193;53.746;10.058;2023-03-14T16:18:56;5.09;64.88
67279;DHT22;54193;53.746;10.058;2023-03-14T16:21:41;4.97;65.66
67279;DHT22;54193;53.746;10.058;2023-03-14T16:24:28;4.96;66.57
67279;DHT22;54193;53.746;10.058;2023-03-14T16:27:14;4.86;66.65
67279;DHT22;54193;53.746;10.058;2023-03-14T16:29:59;4.77;67.09
67279;DHT22;54193;53.746;10.058;2023-03-14T16:32:45;4.75;67.42
67279;DHT22;54193;53.746;10.058;2023-03-14T16:35:32;4.79;66.05
67279;DHT22;54193;53.746;10.058;2023-03-14T16:38:18;4.82;64.00
67279;DHT22;54193;53.746;10.058;2023-03-14T16:43:51;4.76;66.88
67279;DHT22;54193;53.746;10.058;2023-03-14T16:46:38;4.63;66.36
67279;DHT22;54193;53.746;10.058;2023-03-14T16:49:24;4.56;66.53
67279;DHT22;54193;53.746;10.058;2023-03-14T16:52:10;4.53;67.08
67279;DHT22;54193;53.746;10.058;2023-03-14T16:54:55;4.45;67.21
67279;DHT22;54193;53.746;10.058;2023-03-14T16:57:41;4.40;67.72
67279;DHT22;54193;53.746;10.058;2023-03-14T17:00:26;4.38;67.96
67279;DHT22;54193;53.746;10.058;2023-03-14T17:03:15;4.44;68.60
67279;DHT22;54193;53.746;10.058;2023-03-14T17:06:01;4.37;68.51
67279;DHT22;54193;53.746;10.058;2023-03-14T17:08:48;4.22;68.79
67279;DHT22;54193;53.746;10.058;2023-03-14T17:11:34;4.13;69.58
67279;DHT22;54193;53.746;10.058;2023-03-14T17:14:21;4.03;70.65
67279;DHT22;54193;53.746;10.058;2023-03-14T17:17:06;4.04;69.78
67279;DHT22;54193;53.746;10.058;2023-03-14T17:19:53;4.15;69.25
67279;DHT22;54193;53.746;10.058;2023-03-14T17:22:39;4.20;69.87
67279;DHT22;54193;53.746;10.058;2023-03-14T17:25:24;4.31;69.73
67279;DHT22;54193;53.746;10.058;2023-03-14T17:28:12;3.58;78.79
67279;DHT22;54193;53.746;10.058;2023-03-14T17:31:08;2.79;83.28
67279;DHT22;54193;53.746;10.058;2023-03-14T17:33:54;2.52;85.09
67279;DHT22;54193;53.746;10.058;2023-03-14T17:36:39;2.46;85.58
67279;DHT22;54193;53.746;10.058;2023-03-14T17:39:25;2.46;86.35
67279;DHT22;54193;53.746;10.058;2023-03-14T17:42:11;2.37;87.15
67279;DHT22;54193;53.746;10.058;2023-03-14T17:44:56;2.21;87.43
67279;DHT22;54193;53.746;10.058;2023-03-14T17:47:43;2.13;87.39
67279;DHT22;54193;53.746;10.058;2023-03-14T17:50:29;2.10;87.48
67279;DHT22;54193;53.746;10.058;2023-03-14T17:53:14;2.10;87.11
67279;DHT22;54193;53.746;10.058;2023-03-14T17:56:00;2.08;87.11
67279;DHT22;54193;53.746;10.058;2023-03-14T17:58:46;2.15;85.95
67279;DHT22;54193;53.746;10.058;2023-03-14T18:01:31;2.21;85.33
67279;DHT22;54193;53.746;10.058;2023-03-14T18:04:17;2.32;84.36
67279;DHT22;54193;53.746;10.058;2023-03-14T18:07:03;2.35;83.91
67279;DHT22;54193;53.746;10.058;2023-03-14T18:09:48;2.46;82.69
67279;DHT22;54193;53.746;10.058;2023-03-14T18:12:35;2.52;82.73
67279;DHT22;54193;53.746;10.058;2023-03-14T18:15:21;2.60;81.75
67279;DHT22;54193;53.746;10.058;2023-03-14T18:18:07;2.60;81.73
67279;DHT22;54193;53.746;10.058;2023-03-14T18:20:52;2.63;81.31
67279;DHT22;54193;53.746;10.058;2023-03-14T18:23:38;2.65;81.00
67279;DHT22;54193;53.746;10.058;2023-03-14T18:26:24;2.75;80.16
67279;DHT22;54193;53.746;10.058;2023-03-14T18:29:12;2.72;80.17
67279;DHT22;54193;53.746;10.058;2023-03-14T18:31:58;2.82;79.70
67279;DHT22;54193;53.746;10.058;2023-03-14T18:34:44;2.80;79.42
67279;DHT22;54193;53.746;10.058;2023-03-14T18:37:31;2.76;78.82
67279;DHT22;54193;53.746;10.058;2023-03-14T18:40:18;2.79;79.42